Wetterdaten Juni 2003

Datum Tiefsttemp. Hchsttemp. Luftdruck Regen Wind
01.06.2003 15,2 C 29,8 C 1012 hpa 0,0 mm 7,9 km/h
02.06.2003 17,0 C 30,2 C 1011 hpa 0,8 mm 10,8 km/h
03.06.2003 13,2 C 27,1 C 1013 hpa 1,0 mm 11,2 km/h
04.06.2003 16,7 C 30,4 C 1013 hpa 0,0 mm 16,8 km/h
05.06.2003 15,5 C 24,9 C 1018 hpa 2,3 mm 9,4 km/h
06.06.2003 11,6 C 25,4 C 1020 hpa 0,0 mm 9,6 km/h
07.06.2003 15,2 C 30,4 C 1018 hpa 0,0 mm 7,2 km/h
08.06.2003 16,8 C 30,1 C 1013 hpa 7,1 mm 22,4 km/h
09.06.2003 9,0 C 22,7 C 1019 hpa 0,0 mm 6,2 km/h
10.06.2003 12,2 C 30,7 C 1015 hpa 10,7 mm 16,3 km/h
11.06.2003 15,4 C 26,3 C 1019 hpa 0,0 mm 5,8 km/h
12.06.2003 12,8 C 30,4 C 1019 hpa 0,1 mm 9,4 km/h
13.06.2003 13,0 C 27,5 C 1022 hpa 0,0 mm 8,6 km/h
14.06.2003 12,7 C 23,3 C 1020 hpa 4,4 mm 7,2 km/h
15.06.2003 9,6 C 25,4 C 1019 hpa 0,0 mm 7,9 km/h
16.06.2003 10,9 C 26,7 C 1016 hpa 0,0 mm 8,6 km/h
17.06.2003 12,5 C 29,1 C 1013 hpa 1,0 mm 10,1 km/h
18.06.2003 14,2 C 22,4 C 1019 hpa 0,0 mm 10,8 km/h
19.06.2003 13,7 C 21,7 C 1021 hpa 0,4 mm 12,1 km/h
20.06.2003 13,1 C 21,3 C 1020 hpa 0,2 mm 14,3 km/h
21.06.2003 7,2 C 23,8 C 1018 hpa 0,0 mm 9,4 km/h
22.06.2003 11,1 C 30,1 C 1012 hpa 0,0 mm 7,2 km/h
23.06.2003 15,2 C 31,2 C 1010 hpa 1,6 mm 16,2 km/h
24.06.2003 11,5 C 26,9 C 1018 hpa 0,0 mm 9,4 km/h
25.06.2003 8,7 C 24,3 C 1020 hpa 0,0 mm 10,1 km/h
26.06.2003 11,2 C 26,2 C 1016 hpa 0,0 mm 9,4 km/h
27.06.2003 14,4 C 30,8 C 1015 hpa 0,6 mm 11,2 km/h
28.06.2003 15,2 C 24,8 C 1014 hpa 0,0 mm 7,6 km/h
29.06.2003 11,7 C 28,7 C 1010 hpa 0,0 mm 7,9 km/h
30.06.2003 14,3 C 23,1 C 1004 hpa 4,4 mm 6,4 km/h



Gratis Homepage von Beepworld
 
Verantwortlich für den Inhalt dieser Seite ist ausschließlich der
Autor dieser Homepage, kontaktierbar über dieses Formular!